Lackland Air Force Base (Kelly Field Annex) Airport
KSKF : now visible

Airfield :











YOU CAN JOIN US ON...

 
LOGIN :

Register | Disclaimer

   EN    FR    IT 

 









Legend :    VFR   Marginal VFR   IFR   Intensive IFR   Very Intensive IFR
Visi :
Ceiling :
>= 8 km
>= 3000ft
5 to 8 km
1000 to 3000 ft
1500m to 5 km
500 to 1000 ft
800 to 1500m
200 to 500 ft
< 800m
< 200 ft
Symbols :   Thunderstorms  Fog  Heavy snow  Heavy precipitations  Wind > 20 kt






- Airport Elevation : 691 ft


KSKF - Lackland Air Force Base (Kelly Field Annex)

CURRENT METAR :
  • 172056Z AUTO 14005KT 10SM BKN037 BKN150 27/19 A2977 RMK AO2 SLP075 T02670188 57035 $

EXPIRED METARs :
  • 172021Z AUTO 20009KT 10SM SCT031 BKN150 26/19 A2978 RMK AO2 SLP079 $
  • 172011Z AUTO 16005KT 10SM BKN031 BKN150 26/19 A2979 RMK AO2 SLP083 $
  • 171956Z AUTO 13003KT 10SM SCT027 BKN150 26/19 A2979 RMK AO2 SLP083 T02570188 $
  • 171946Z AUTO 00000KT 10SM SCT026 BKN150 26/19 A2980 RMK AO2 SLP086 $
  • 171931Z AUTO 14005KT 10SM SCT024 BKN030 BKN160 25/19 A2981 RMK AO2 SLP090 $
  • 171911Z AUTO 18005KT 10SM SCT022 BKN160 25/19 A2983 RMK AO2 SLP097 $
  • 171906Z AUTO 16007KT 10SM BKN022 BKN160 25/19 A2983 RMK AO2 CIG 022V160 BKN022 V SCT SLP097 $
  • 171856Z AUTO 19005KT 10SM SCT020 SCT026 BKN160 24/19 A2984 RMK AO2 SLP100 T02440192 $
  • 171846Z COR AUTO 19008KT 10SM BKN020 BKN026 OVC150 24/19 A2985 RMK AO2 SLP104 $ COR 1848
  • 171836Z 20005KT 10SM BKN018 BKN150 BKN190 24/19 A2985 RMK AO2A SLP104 $
  • 171817Z 24005KT 10SM BKN016 BKN210 24/19 A2986 RMK AO2A SLP107 $

TAF TAF KSKF
Valid from the 17 at 18:00 until the 19 at 00:00 UTC


171800Z 1718/1824 19009KT 9999 BKN015 OVC200 QNH2983INS
BECMG 1719/1720 17009KT 9999 SCT030 BKN200 QNH2977INS
BECMG 1805/1806 14006KT 9000 BR BKN008 OVC180 QNH2980INS
BECMG 1807/1808 13005KT 4800 BR OVC005 QNH2982INS
TEMPO 1810/1814 3200 -DZ BR OVC004
BECMG 1815/1816 06007KT 9999 NSW OVC008 QNH2990INS
BECMG 1817/1818 04009KT 9999 BKN015 OVC140 QNH2995INS
BECMG 1822/1823 02018G27KT 9999 VCSH OVC025 QNH3000INS TX26/1721Z TN19/1812Z



MET'MAP, your aeronautical weather chart ! - Copyright ORBIFLY December 2007 - Disclaimer

ORBIFLY MET'MAP TEAM :

Programming & Development : Alexandra Zaïnal
Concept & original design : Baudouin d'Aumeries
Assistance for programming : Marc-Olivier Méhu
Technical & hardware support : Manuel Goepfert

Contact : metmap@orbifly.com




SOURCES & CREDITS :

   NOAA       Earth
Advisory